sensor_id;sensor_type;location;lat;lon;timestamp;P1;durP1;ratioP1;P2;durP2;ratioP2
81834;SDS011;71272;52.166;4.498;2023-07-30T00:02:16;24.88;;;4.32;;
81834;SDS011;71272;52.166;4.498;2023-07-30T00:04:42;17.67;;;3.50;;
81834;SDS011;71272;52.166;4.498;2023-07-30T00:07:08;26.55;;;4.97;;
81834;SDS011;71272;52.166;4.498;2023-07-30T00:09:33;23.60;;;4.70;;
81834;SDS011;71272;52.166;4.498;2023-07-30T00:11:58;20.73;;;4.53;;
81834;SDS011;71272;52.166;4.498;2023-07-30T00:14:24;20.70;;;4.67;;
81834;SDS011;71272;52.166;4.498;2023-07-30T00:16:49;16.48;;;4.10;;
81834;SDS011;71272;52.166;4.498;2023-07-30T00:19:14;15.33;;;4.17;;
81834;SDS011;71272;52.166;4.498;2023-07-30T00:21:40;23.57;;;4.33;;
81834;SDS011;71272;52.166;4.498;2023-07-30T00:24:05;26.38;;;5.57;;
81834;SDS011;71272;52.166;4.498;2023-07-30T00:26:31;26.60;;;5.20;;
81834;SDS011;71272;52.166;4.498;2023-07-30T00:28:56;20.27;;;4.32;;
81834;SDS011;71272;52.166;4.498;2023-07-30T00:31:21;23.10;;;4.97;;
81834;SDS011;71272;52.166;4.498;2023-07-30T00:33:47;20.37;;;4.20;;
81834;SDS011;71272;52.166;4.498;2023-07-30T00:36:12;24.43;;;4.33;;
81834;SDS011;71272;52.166;4.498;2023-07-30T00:38:37;20.63;;;4.03;;
81834;SDS011;71272;52.166;4.498;2023-07-30T00:41:02;23.33;;;4.60;;
81834;SDS011;71272;52.166;4.498;2023-07-30T00:43:28;20.73;;;4.97;;
81834;SDS011;71272;52.166;4.498;2023-07-30T00:45:53;21.97;;;4.83;;
81834;SDS011;71272;52.166;4.498;2023-07-30T00:48:19;21.50;;;4.03;;
81834;SDS011;71272;52.166;4.498;2023-07-30T00:50:44;24.98;;;3.90;;
81834;SDS011;71272;52.166;4.498;2023-07-30T00:53:10;20.73;;;4.53;;
81834;SDS011;71272;52.166;4.498;2023-07-30T00:55:39;18.58;;;3.63;;
81834;SDS011;71272;52.166;4.498;2023-07-30T00:58:04;29.25;;;4.20;;
81834;SDS011;71272;52.166;4.498;2023-07-30T01:00:30;18.92;;;4.00;;
81834;SDS011;71272;52.166;4.498;2023-07-30T01:02:56;23.55;;;4.15;;
81834;SDS011;71272;52.166;4.498;2023-07-30T01:05:22;26.88;;;4.18;;
81834;SDS011;71272;52.166;4.498;2023-07-30T01:07:47;19.88;;;3.50;;
81834;SDS011;71272;52.166;4.498;2023-07-30T01:10:13;16.92;;;3.53;;
81834;SDS011;71272;52.166;4.498;2023-07-30T01:12:39;29.27;;;3.80;;
81834;SDS011;71272;52.166;4.498;2023-07-30T01:15:06;21.67;;;3.92;;
81834;SDS011;71272;52.166;4.498;2023-07-30T01:17:32;20.75;;;3.72;;
81834;SDS011;71272;52.166;4.498;2023-07-30T01:19:58;23.75;;;4.40;;
81834;SDS011;71272;52.166;4.498;2023-07-30T01:22:24;20.30;;;4.37;;
81834;SDS011;71272;52.166;4.498;2023-07-30T01:24:50;19.25;;;3.88;;
81834;SDS011;71272;52.166;4.498;2023-07-30T01:27:22;23.17;;;3.47;;
81834;SDS011;71272;52.166;4.498;2023-07-30T01:29:52;22.63;;;3.80;;
81834;SDS011;71272;52.166;4.498;2023-07-30T01:32:23;20.50;;;5.05;;
81834;SDS011;71272;52.166;4.498;2023-07-30T01:34:53;27.70;;;4.60;;
81834;SDS011;71272;52.166;4.498;2023-07-30T01:37:20;20.77;;;3.88;;
81834;SDS011;71272;52.166;4.498;2023-07-30T01:39:46;19.33;;;3.17;;
81834;SDS011;71272;52.166;4.498;2023-07-30T01:42:13;23.10;;;4.07;;
81834;SDS011;71272;52.166;4.498;2023-07-30T01:44:38;21.90;;;3.70;;
81834;SDS011;71272;52.166;4.498;2023-07-30T01:47:04;24.45;;;4.38;;
81834;SDS011;71272;52.166;4.498;2023-07-30T01:49:29;18.37;;;4.07;;
81834;SDS011;71272;52.166;4.498;2023-07-30T01:51:54;26.00;;;4.03;;
81834;SDS011;71272;52.166;4.498;2023-07-30T01:54:19;12.27;;;3.63;;
81834;SDS011;71272;52.166;4.498;2023-07-30T01:56:45;24.20;;;4.40;;
81834;SDS011;71272;52.166;4.498;2023-07-30T01:59:10;21.50;;;4.67;;
81834;SDS011;71272;52.166;4.498;2023-07-30T02:01:35;21.67;;;4.13;;
81834;SDS011;71272;52.166;4.498;2023-07-30T02:04:01;20.60;;;4.00;;
81834;SDS011;71272;52.166;4.498;2023-07-30T02:06:26;26.97;;;3.90;;
81834;SDS011;71272;52.166;4.498;2023-07-30T02:08:51;23.30;;;4.43;;
81834;SDS011;71272;52.166;4.498;2023-07-30T02:11:17;25.80;;;3.90;;
81834;SDS011;71272;52.166;4.498;2023-07-30T02:13:42;29.27;;;5.73;;
81834;SDS011;71272;52.166;4.498;2023-07-30T02:16:07;15.70;;;3.60;;
81834;SDS011;71272;52.166;4.498;2023-07-30T02:18:33;24.27;;;3.37;;
81834;SDS011;71272;52.166;4.498;2023-07-30T02:20:58;22.60;;;3.65;;
81834;SDS011;71272;52.166;4.498;2023-07-30T02:23:23;21.70;;;4.07;;
81834;SDS011;71272;52.166;4.498;2023-07-30T02:25:49;21.50;;;3.13;;
81834;SDS011;71272;52.166;4.498;2023-07-30T02:28:14;19.83;;;3.40;;
81834;SDS011;71272;52.166;4.498;2023-07-30T02:30:39;19.93;;;3.50;;
81834;SDS011;71272;52.166;4.498;2023-07-30T02:33:05;18.17;;;3.90;;
81834;SDS011;71272;52.166;4.498;2023-07-30T02:35:30;19.00;;;3.50;;
81834;SDS011;71272;52.166;4.498;2023-07-30T02:37:55;18.03;;;3.30;;
81834;SDS011;71272;52.166;4.498;2023-07-30T02:40:21;20.07;;;3.40;;
81834;SDS011;71272;52.166;4.498;2023-07-30T02:42:46;15.53;;;3.07;;
81834;SDS011;71272;52.166;4.498;2023-07-30T02:45:12;19.77;;;3.90;;
81834;SDS011;71272;52.166;4.498;2023-07-30T02:47:38;18.47;;;2.90;;
81834;SDS011;71272;52.166;4.498;2023-07-30T02:50:04;18.87;;;3.50;;
81834;SDS011;71272;52.166;4.498;2023-07-30T02:52:29;16.13;;;2.92;;
81834;SDS011;71272;52.166;4.498;2023-07-30T02:54:54;14.83;;;2.90;;
81834;SDS011;71272;52.166;4.498;2023-07-30T02:57:20;14.57;;;2.57;;
81834;SDS011;71272;52.166;4.498;2023-07-30T02:59:45;15.67;;;3.20;;
81834;SDS011;71272;52.166;4.498;2023-07-30T03:02:10;12.10;;;2.60;;
81834;SDS011;71272;52.166;4.498;2023-07-30T03:04:36;10.20;;;2.03;;
81834;SDS011;71272;52.166;4.498;2023-07-30T03:07:01;10.00;;;2.80;;
81834;SDS011;71272;52.166;4.498;2023-07-30T03:09:27;13.77;;;2.45;;
81834;SDS011;71272;52.166;4.498;2023-07-30T03:11:52;10.82;;;1.98;;
81834;SDS011;71272;52.166;4.498;2023-07-30T03:14:18;10.32;;;2.00;;
81834;SDS011;71272;52.166;4.498;2023-07-30T03:16:47;10.82;;;2.25;;
81834;SDS011;71272;52.166;4.498;2023-07-30T03:19:13;10.95;;;2.25;;
81834;SDS011;71272;52.166;4.498;2023-07-30T03:21:39;9.40;;;1.98;;
81834;SDS011;71272;52.166;4.498;2023-07-30T03:24:04;12.63;;;2.07;;
81834;SDS011;71272;52.166;4.498;2023-07-30T03:26:29;9.90;;;2.00;;
81834;SDS011;71272;52.166;4.498;2023-07-30T03:28:55;12.40;;;1.97;;
81834;SDS011;71272;52.166;4.498;2023-07-30T03:31:20;10.93;;;1.97;;
81834;SDS011;71272;52.166;4.498;2023-07-30T03:33:45;7.53;;;2.03;;
81834;SDS011;71272;52.166;4.498;2023-07-30T03:36:11;12.52;;;2.22;;
81834;SDS011;71272;52.166;4.498;2023-07-30T03:38:38;12.10;;;2.30;;
81834;SDS011;71272;52.166;4.498;2023-07-30T03:41:04;8.80;;;2.08;;
81834;SDS011;71272;52.166;4.498;2023-07-30T03:43:30;11.70;;;2.10;;
81834;SDS011;71272;52.166;4.498;2023-07-30T03:45:56;9.63;;;2.00;;
81834;SDS011;71272;52.166;4.498;2023-07-30T03:48:21;19.85;;;2.60;;
81834;SDS011;71272;52.166;4.498;2023-07-30T03:50:46;10.87;;;2.10;;
81834;SDS011;71272;52.166;4.498;2023-07-30T03:53:12;11.88;;;2.33;;
81834;SDS011;71272;52.166;4.498;2023-07-30T03:55:37;9.23;;;2.13;;
81834;SDS011;71272;52.166;4.498;2023-07-30T03:58:02;10.43;;;1.63;;
81834;SDS011;71272;52.166;4.498;2023-07-30T04:00:28;8.10;;;1.63;;
81834;SDS011;71272;52.166;4.498;2023-07-30T04:02:54;12.15;;;1.75;;
81834;SDS011;71272;52.166;4.498;2023-07-30T04:05:19;6.50;;;1.63;;
81834;SDS011;71272;52.166;4.498;2023-07-30T04:07:45;7.90;;;1.60;;
81834;SDS011;71272;52.166;4.498;2023-07-30T04:10:10;12.83;;;2.97;;
81834;SDS011;71272;52.166;4.498;2023-07-30T04:12:35;13.20;;;2.10;;
81834;SDS011;71272;52.166;4.498;2023-07-30T04:15:01;8.43;;;2.25;;
81834;SDS011;71272;52.166;4.498;2023-07-30T04:17:26;6.70;;;1.50;;
81834;SDS011;71272;52.166;4.498;2023-07-30T04:19:51;8.10;;;1.90;;
81834;SDS011;71272;52.166;4.498;2023-07-30T04:22:17;13.53;;;1.77;;
81834;SDS011;71272;52.166;4.498;2023-07-30T04:24:42;12.93;;;1.77;;
81834;SDS011;71272;52.166;4.498;2023-07-30T04:27:07;6.00;;;1.60;;
81834;SDS011;71272;52.166;4.498;2023-07-30T04:29:33;9.03;;;2.07;;
81834;SDS011;71272;52.166;4.498;2023-07-30T04:31:58;14.00;;;1.90;;
81834;SDS011;71272;52.166;4.498;2023-07-30T04:34:23;8.73;;;1.83;;
81834;SDS011;71272;52.166;4.498;2023-07-30T04:36:49;11.15;;;1.55;;
81834;SDS011;71272;52.166;4.498;2023-07-30T04:39:14;6.77;;;1.60;;
81834;SDS011;71272;52.166;4.498;2023-07-30T04:41:39;8.35;;;1.80;;
81834;SDS011;71272;52.166;4.498;2023-07-30T04:44:05;10.07;;;1.70;;
81834;SDS011;71272;52.166;4.498;2023-07-30T04:46:30;10.00;;;1.90;;
81834;SDS011;71272;52.166;4.498;2023-07-30T04:48:57;9.23;;;1.60;;
81834;SDS011;71272;52.166;4.498;2023-07-30T04:51:22;10.33;;;2.07;;
81834;SDS011;71272;52.166;4.498;2023-07-30T04:53:47;6.50;;;1.73;;
81834;SDS011;71272;52.166;4.498;2023-07-30T04:56:13;9.50;;;1.80;;
81834;SDS011;71272;52.166;4.498;2023-07-30T04:58:38;9.57;;;2.20;;
81834;SDS011;71272;52.166;4.498;2023-07-30T05:01:03;12.53;;;1.57;;
81834;SDS011;71272;52.166;4.498;2023-07-30T05:03:29;8.93;;;2.30;;
81834;SDS011;71272;52.166;4.498;2023-07-30T05:05:54;9.07;;;1.77;;
81834;SDS011;71272;52.166;4.498;2023-07-30T05:08:19;6.90;;;2.00;;
81834;SDS011;71272;52.166;4.498;2023-07-30T05:10:45;5.83;;;1.77;;
81834;SDS011;71272;52.166;4.498;2023-07-30T05:13:10;9.27;;;1.70;;
81834;SDS011;71272;52.166;4.498;2023-07-30T05:15:37;7.82;;;1.75;;
81834;SDS011;71272;52.166;4.498;2023-07-30T05:18:03;10.77;;;2.03;;
81834;SDS011;71272;52.166;4.498;2023-07-30T05:20:28;9.57;;;1.97;;
81834;SDS011;71272;52.166;4.498;2023-07-30T05:22:54;18.02;;;2.50;;
81834;SDS011;71272;52.166;4.498;2023-07-30T05:25:19;7.30;;;2.00;;
81834;SDS011;71272;52.166;4.498;2023-07-30T05:27:44;8.83;;;2.47;;
81834;SDS011;71272;52.166;4.498;2023-07-30T05:30:10;9.30;;;1.83;;
81834;SDS011;71272;52.166;4.498;2023-07-30T05:32:35;6.05;;;1.83;;
81834;SDS011;71272;52.166;4.498;2023-07-30T05:35:01;5.83;;;1.77;;
81834;SDS011;71272;52.166;4.498;2023-07-30T05:37:26;9.68;;;1.90;;
81834;SDS011;71272;52.166;4.498;2023-07-30T05:39:52;12.48;;;1.92;;
81834;SDS011;71272;52.166;4.498;2023-07-30T05:42:17;13.37;;;1.83;;
81834;SDS011;71272;52.166;4.498;2023-07-30T05:44:43;9.67;;;1.77;;
81834;SDS011;71272;52.166;4.498;2023-07-30T05:47:08;12.97;;;1.87;;
81834;SDS011;71272;52.166;4.498;2023-07-30T05:49:33;6.83;;;1.70;;
81834;SDS011;71272;52.166;4.498;2023-07-30T05:51:58;12.35;;;2.00;;
81834;SDS011;71272;52.166;4.498;2023-07-30T05:54:24;8.23;;;1.80;;
81834;SDS011;71272;52.166;4.498;2023-07-30T05:56:49;10.47;;;2.03;;
81834;SDS011;71272;52.166;4.498;2023-07-30T05:59:15;9.75;;;2.45;;
81834;SDS011;71272;52.166;4.498;2023-07-30T06:01:40;8.55;;;1.88;;
81834;SDS011;71272;52.166;4.498;2023-07-30T06:04:06;6.17;;;2.33;;
81834;SDS011;71272;52.166;4.498;2023-07-30T06:06:31;10.67;;;2.40;;
81834;SDS011;71272;52.166;4.498;2023-07-30T06:08:56;9.33;;;2.13;;
81834;SDS011;71272;52.166;4.498;2023-07-30T06:11:22;5.93;;;1.60;;
81834;SDS011;71272;52.166;4.498;2023-07-30T06:13:47;7.28;;;2.35;;
81834;SDS011;71272;52.166;4.498;2023-07-30T06:16:13;12.90;;;2.33;;
81834;SDS011;71272;52.166;4.498;2023-07-30T06:18:39;10.07;;;1.88;;
81834;SDS011;71272;52.166;4.498;2023-07-30T06:21:05;11.40;;;2.17;;
81834;SDS011;71272;52.166;4.498;2023-07-30T06:23:30;11.17;;;2.10;;
81834;SDS011;71272;52.166;4.498;2023-07-30T06:25:56;9.87;;;1.90;;
81834;SDS011;71272;52.166;4.498;2023-07-30T06:28:21;11.03;;;2.27;;
81834;SDS011;71272;52.166;4.498;2023-07-30T06:30:46;9.50;;;2.07;;
81834;SDS011;71272;52.166;4.498;2023-07-30T06:33:12;9.73;;;2.30;;
81834;SDS011;71272;52.166;4.498;2023-07-30T06:35:37;8.30;;;1.98;;
81834;SDS011;71272;52.166;4.498;2023-07-30T06:38:02;8.48;;;2.00;;
81834;SDS011;71272;52.166;4.498;2023-07-30T06:40:28;8.03;;;1.87;;
81834;SDS011;71272;52.166;4.498;2023-07-30T06:42:53;8.10;;;1.95;;
81834;SDS011;71272;52.166;4.498;2023-07-30T06:45:18;8.83;;;2.03;;
81834;SDS011;71272;52.166;4.498;2023-07-30T06:47:44;6.63;;;1.60;;
81834;SDS011;71272;52.166;4.498;2023-07-30T06:50:09;9.43;;;1.87;;
81834;SDS011;71272;52.166;4.498;2023-07-30T06:52:35;8.10;;;1.73;;
81834;SDS011;71272;52.166;4.498;2023-07-30T06:55:01;11.07;;;1.70;;
81834;SDS011;71272;52.166;4.498;2023-07-30T06:57:28;13.55;;;2.03;;
81834;SDS011;71272;52.166;4.498;2023-07-30T06:59:54;7.93;;;1.73;;
81834;SDS011;71272;52.166;4.498;2023-07-30T07:02:19;7.40;;;1.70;;
81834;SDS011;71272;52.166;4.498;2023-07-30T07:04:46;12.23;;;2.70;;
81834;SDS011;71272;52.166;4.498;2023-07-30T07:09:36;8.50;;;2.13;;
81834;SDS011;71272;52.166;4.498;2023-07-30T07:12:02;12.87;;;3.13;;
81834;SDS011;71272;52.166;4.498;2023-07-30T07:14:28;11.02;;;1.90;;
81834;SDS011;71272;52.166;4.498;2023-07-30T07:16:54;11.20;;;2.53;;
81834;SDS011;71272;52.166;4.498;2023-07-30T07:19:22;13.40;;;2.30;;
81834;SDS011;71272;52.166;4.498;2023-07-30T07:21:48;14.77;;;2.30;;
81834;SDS011;71272;52.166;4.498;2023-07-30T07:24:13;12.68;;;2.33;;
81834;SDS011;71272;52.166;4.498;2023-07-30T07:26:39;13.20;;;2.65;;
81834;SDS011;71272;52.166;4.498;2023-07-30T07:29:04;12.77;;;2.47;;
81834;SDS011;71272;52.166;4.498;2023-07-30T07:31:30;12.40;;;2.87;;
81834;SDS011;71272;52.166;4.498;2023-07-30T07:36:21;14.63;;;2.77;;
81834;SDS011;71272;52.166;4.498;2023-07-30T07:38:47;9.80;;;2.63;;
81834;SDS011;71272;52.166;4.498;2023-07-30T07:41:15;12.30;;;2.40;;
81834;SDS011;71272;52.166;4.498;2023-07-30T07:43:41;10.68;;;2.38;;
81834;SDS011;71272;52.166;4.498;2023-07-30T07:46:07;12.57;;;2.40;;
81834;SDS011;71272;52.166;4.498;2023-07-30T07:48:38;14.68;;;2.45;;
81834;SDS011;71272;52.166;4.498;2023-07-30T07:51:07;10.98;;;1.95;;
81834;SDS011;71272;52.166;4.498;2023-07-30T07:53:34;14.88;;;2.60;;
81834;SDS011;71272;52.166;4.498;2023-07-30T07:55:59;13.50;;;2.72;;
81834;SDS011;71272;52.166;4.498;2023-07-30T07:58:24;14.50;;;2.22;;
81834;SDS011;71272;52.166;4.498;2023-07-30T08:00:50;11.00;;;2.67;;
81834;SDS011;71272;52.166;4.498;2023-07-30T08:03:15;10.80;;;2.13;;
81834;SDS011;71272;52.166;4.498;2023-07-30T08:05:40;13.57;;;2.90;;
81834;SDS011;71272;52.166;4.498;2023-07-30T08:08:06;11.75;;;2.30;;
81834;SDS011;71272;52.166;4.498;2023-07-30T08:10:31;11.32;;;1.95;;
81834;SDS011;71272;52.166;4.498;2023-07-30T08:12:56;10.93;;;2.37;;
81834;SDS011;71272;52.166;4.498;2023-07-30T08:15:22;12.67;;;2.83;;
81834;SDS011;71272;52.166;4.498;2023-07-30T08:17:47;11.87;;;2.00;;
81834;SDS011;71272;52.166;4.498;2023-07-30T08:20:12;10.20;;;2.17;;
81834;SDS011;71272;52.166;4.498;2023-07-30T08:22:38;15.73;;;2.35;;
81834;SDS011;71272;52.166;4.498;2023-07-30T08:25:03;7.13;;;1.97;;
81834;SDS011;71272;52.166;4.498;2023-07-30T08:27:29;10.38;;;2.20;;
81834;SDS011;71272;52.166;4.498;2023-07-30T08:29:55;11.07;;;3.58;;
81834;SDS011;71272;52.166;4.498;2023-07-30T08:32:20;11.87;;;2.30;;
81834;SDS011;71272;52.166;4.498;2023-07-30T08:34:46;10.10;;;2.20;;
81834;SDS011;71272;52.166;4.498;2023-07-30T08:42:02;8.50;;;2.20;;
81834;SDS011;71272;52.166;4.498;2023-07-30T08:44:28;9.02;;;2.50;;
81834;SDS011;71272;52.166;4.498;2023-07-30T08:46:54;8.38;;;2.28;;
81834;SDS011;71272;52.166;4.498;2023-07-30T08:51:44;9.57;;;1.83;;
81834;SDS011;71272;52.166;4.498;2023-07-30T08:54:13;9.68;;;2.20;;
81834;SDS011;71272;52.166;4.498;2023-07-30T08:56:41;10.13;;;2.28;;
81834;SDS011;71272;52.166;4.498;2023-07-30T08:59:06;9.95;;;2.03;;
81834;SDS011;71272;52.166;4.498;2023-07-30T09:01:34;9.77;;;2.05;;
81834;SDS011;71272;52.166;4.498;2023-07-30T09:04:03;9.82;;;2.55;;
81834;SDS011;71272;52.166;4.498;2023-07-30T09:06:30;11.85;;;2.40;;
81834;SDS011;71272;52.166;4.498;2023-07-30T09:08:57;8.23;;;2.00;;
81834;SDS011;71272;52.166;4.498;2023-07-30T09:11:25;10.00;;;2.00;;
81834;SDS011;71272;52.166;4.498;2023-07-30T09:13:52;8.02;;;2.10;;
81834;SDS011;71272;52.166;4.498;2023-07-30T09:16:23;6.15;;;2.00;;
81834;SDS011;71272;52.166;4.498;2023-07-30T09:18:50;9.48;;;2.20;;
81834;SDS011;71272;52.166;4.498;2023-07-30T09:23:44;9.20;;;2.07;;
81834;SDS011;71272;52.166;4.498;2023-07-30T09:26:11;9.38;;;2.20;;
81834;SDS011;71272;52.166;4.498;2023-07-30T09:28:38;8.90;;;1.73;;
81834;SDS011;71272;52.166;4.498;2023-07-30T09:31:04;9.68;;;2.15;;
81834;SDS011;71272;52.166;4.498;2023-07-30T09:33:32;10.48;;;1.92;;
81834;SDS011;71272;52.166;4.498;2023-07-30T09:35:58;9.25;;;1.80;;
81834;SDS011;71272;52.166;4.498;2023-07-30T09:38:26;9.80;;;2.60;;
81834;SDS011;71272;52.166;4.498;2023-07-30T09:41:00;7.15;;;2.10;;
81834;SDS011;71272;52.166;4.498;2023-07-30T09:43:33;6.20;;;1.40;;
81834;SDS011;71272;52.166;4.498;2023-07-30T09:48:29;8.52;;;1.83;;
81834;SDS011;71272;52.166;4.498;2023-07-30T09:50:59;9.10;;;2.28;;
81834;SDS011;71272;52.166;4.498;2023-07-30T09:53:28;9.73;;;2.30;;
81834;SDS011;71272;52.166;4.498;2023-07-30T09:55:55;6.05;;;1.90;;
81834;SDS011;71272;52.166;4.498;2023-07-30T10:00:45;10.67;;;2.60;;
81834;SDS011;71272;52.166;4.498;2023-07-30T10:03:14;7.38;;;1.85;;
81834;SDS011;71272;52.166;4.498;2023-07-30T10:05:41;10.40;;;1.90;;
81834;SDS011;71272;52.166;4.498;2023-07-30T10:08:10;11.05;;;2.35;;
81834;SDS011;71272;52.166;4.498;2023-07-30T10:10:40;9.13;;;2.08;;
81834;SDS011;71272;52.166;4.498;2023-07-30T10:13:06;9.70;;;1.90;;
81834;SDS011;71272;52.166;4.498;2023-07-30T10:15:35;11.25;;;2.28;;
81834;SDS011;71272;52.166;4.498;2023-07-30T10:18:13;10.13;;;2.30;;
81834;SDS011;71272;52.166;4.498;2023-07-30T10:20:54;12.18;;;2.50;;
81834;SDS011;71272;52.166;4.498;2023-07-30T10:23:21;11.50;;;2.63;;
81834;SDS011;71272;52.166;4.498;2023-07-30T10:25:52;8.15;;;1.92;;
81834;SDS011;71272;52.166;4.498;2023-07-30T10:28:27;10.95;;;1.90;;
81834;SDS011;71272;52.166;4.498;2023-07-30T10:30:57;13.00;;;2.38;;
81834;SDS011;71272;52.166;4.498;2023-07-30T10:33:46;11.68;;;2.10;;
81834;SDS011;71272;52.166;4.498;2023-07-30T10:36:14;14.40;;;2.10;;
81834;SDS011;71272;52.166;4.498;2023-07-30T10:38:43;9.68;;;2.13;;
81834;SDS011;71272;52.166;4.498;2023-07-30T10:41:09;10.57;;;2.17;;
81834;SDS011;71272;52.166;4.498;2023-07-30T10:43:41;9.10;;;1.85;;
81834;SDS011;71272;52.166;4.498;2023-07-30T10:46:11;12.57;;;2.17;;
81834;SDS011;71272;52.166;4.498;2023-07-30T10:48:38;10.32;;;2.45;;
81834;SDS011;71272;52.166;4.498;2023-07-30T10:51:06;8.27;;;1.95;;
81834;SDS011;71272;52.166;4.498;2023-07-30T10:53:33;13.68;;;1.90;;
81834;SDS011;71272;52.166;4.498;2023-07-30T10:56:01;14.00;;;2.65;;
81834;SDS011;71272;52.166;4.498;2023-07-30T10:58:31;8.02;;;1.75;;
81834;SDS011;71272;52.166;4.498;2023-07-30T11:00:58;10.82;;;1.92;;
81834;SDS011;71272;52.166;4.498;2023-07-30T11:03:24;10.13;;;1.92;;
81834;SDS011;71272;52.166;4.498;2023-07-30T11:05:51;10.10;;;1.90;;
81834;SDS011;71272;52.166;4.498;2023-07-30T11:08:17;11.48;;;2.33;;
81834;SDS011;71272;52.166;4.498;2023-07-30T11:10:45;13.87;;;2.40;;
81834;SDS011;71272;52.166;4.498;2023-07-30T11:13:12;8.32;;;1.80;;
81834;SDS011;71272;52.166;4.498;2023-07-30T11:15:43;11.82;;;2.35;;
81834;SDS011;71272;52.166;4.498;2023-07-30T11:18:09;9.73;;;2.20;;
81834;SDS011;71272;52.166;4.498;2023-07-30T11:20:35;10.57;;;2.38;;
81834;SDS011;71272;52.166;4.498;2023-07-30T11:23:01;12.15;;;2.88;;
81834;SDS011;71272;52.166;4.498;2023-07-30T11:25:27;7.50;;;1.98;;
81834;SDS011;71272;52.166;4.498;2023-07-30T11:27:52;9.88;;;1.90;;
81834;SDS011;71272;52.166;4.498;2023-07-30T11:30:18;10.57;;;1.97;;
81834;SDS011;71272;52.166;4.498;2023-07-30T11:32:44;11.25;;;3.15;;
81834;SDS011;71272;52.166;4.498;2023-07-30T11:35:10;11.40;;;2.20;;
81834;SDS011;71272;52.166;4.498;2023-07-30T11:37:37;8.57;;;1.58;;
81834;SDS011;71272;52.166;4.498;2023-07-30T11:40:09;12.57;;;2.08;;
81834;SDS011;71272;52.166;4.498;2023-07-30T11:42:36;9.38;;;1.83;;
81834;SDS011;71272;52.166;4.498;2023-07-30T11:45:20;9.15;;;1.92;;
81834;SDS011;71272;52.166;4.498;2023-07-30T11:47:47;7.18;;;1.70;;
81834;SDS011;71272;52.166;4.498;2023-07-30T11:50:13;7.82;;;1.95;;
81834;SDS011;71272;52.166;4.498;2023-07-30T11:52:52;6.43;;;1.55;;
81834;SDS011;71272;52.166;4.498;2023-07-30T11:55:18;12.35;;;1.90;;
81834;SDS011;71272;52.166;4.498;2023-07-30T11:57:44;9.43;;;1.75;;
81834;SDS011;71272;52.166;4.498;2023-07-30T12:00:10;10.18;;;1.88;;
81834;SDS011;71272;52.166;4.498;2023-07-30T12:02:37;9.13;;;1.98;;
81834;SDS011;71272;52.166;4.498;2023-07-30T12:05:03;9.00;;;1.98;;
81834;SDS011;71272;52.166;4.498;2023-07-30T12:07:29;11.50;;;1.50;;
81834;SDS011;71272;52.166;4.498;2023-07-30T12:09:54;7.05;;;1.42;;
81834;SDS011;71272;52.166;4.498;2023-07-30T12:12:20;7.50;;;1.30;;
81834;SDS011;71272;52.166;4.498;2023-07-30T12:17:15;9.23;;;1.52;;
81834;SDS011;71272;52.166;4.498;2023-07-30T12:19:41;6.25;;;1.70;;
81834;SDS011;71272;52.166;4.498;2023-07-30T12:22:07;8.05;;;1.73;;
81834;SDS011;71272;52.166;4.498;2023-07-30T12:24:32;12.75;;;2.00;;
81834;SDS011;71272;52.166;4.498;2023-07-30T12:26:58;8.10;;;1.67;;
81834;SDS011;71272;52.166;4.498;2023-07-30T12:29:24;10.85;;;1.88;;
81834;SDS011;71272;52.166;4.498;2023-07-30T12:31:49;9.95;;;1.90;;
81834;SDS011;71272;52.166;4.498;2023-07-30T12:34:18;9.30;;;1.65;;
81834;SDS011;71272;52.166;4.498;2023-07-30T12:36:43;8.07;;;1.65;;
81834;SDS011;71272;52.166;4.498;2023-07-30T12:39:09;8.20;;;2.17;;
81834;SDS011;71272;52.166;4.498;2023-07-30T12:41:34;7.70;;;1.70;;
81834;SDS011;71272;52.166;4.498;2023-07-30T12:43:59;7.13;;;1.30;;
81834;SDS011;71272;52.166;4.498;2023-07-30T12:46:25;7.88;;;1.80;;
81834;SDS011;71272;52.166;4.498;2023-07-30T12:48:55;9.45;;;2.08;;
81834;SDS011;71272;52.166;4.498;2023-07-30T12:51:28;7.07;;;1.52;;
81834;SDS011;71272;52.166;4.498;2023-07-30T12:53:54;9.93;;;2.17;;
81834;SDS011;71272;52.166;4.498;2023-07-30T12:56:19;9.80;;;1.67;;
81834;SDS011;71272;52.166;4.498;2023-07-30T12:58:45;9.20;;;1.80;;
81834;SDS011;71272;52.166;4.498;2023-07-30T13:01:10;6.00;;;1.50;;
81834;SDS011;71272;52.166;4.498;2023-07-30T13:03:35;6.13;;;1.77;;
81834;SDS011;71272;52.166;4.498;2023-07-30T13:06:01;6.93;;;1.60;;
81834;SDS011;71272;52.166;4.498;2023-07-30T13:08:27;9.88;;;1.95;;
81834;SDS011;71272;52.166;4.498;2023-07-30T13:10:52;6.32;;;1.33;;
81834;SDS011;71272;52.166;4.498;2023-07-30T13:13:17;11.00;;;1.63;;
81834;SDS011;71272;52.166;4.498;2023-07-30T13:15:43;12.60;;;1.97;;
81834;SDS011;71272;52.166;4.498;2023-07-30T13:18:08;10.70;;;1.90;;
81834;SDS011;71272;52.166;4.498;2023-07-30T13:20:34;11.30;;;1.70;;
81834;SDS011;71272;52.166;4.498;2023-07-30T13:22:59;19.02;;;2.72;;
81834;SDS011;71272;52.166;4.498;2023-07-30T13:25:25;11.10;;;2.10;;
81834;SDS011;71272;52.166;4.498;2023-07-30T13:27:50;11.80;;;2.00;;
81834;SDS011;71272;52.166;4.498;2023-07-30T13:30:15;12.53;;;2.40;;
81834;SDS011;71272;52.166;4.498;2023-07-30T13:32:41;13.57;;;2.77;;
81834;SDS011;71272;52.166;4.498;2023-07-30T13:35:06;13.15;;;2.53;;
81834;SDS011;71272;52.166;4.498;2023-07-30T13:37:32;10.93;;;2.50;;
81834;SDS011;71272;52.166;4.498;2023-07-30T13:39:57;9.43;;;2.23;;
81834;SDS011;71272;52.166;4.498;2023-07-30T13:42:22;10.77;;;2.13;;
81834;SDS011;71272;52.166;4.498;2023-07-30T13:44:48;14.20;;;2.47;;
81834;SDS011;71272;52.166;4.498;2023-07-30T13:47:13;9.67;;;2.20;;
81834;SDS011;71272;52.166;4.498;2023-07-30T13:49:38;17.10;;;2.43;;
81834;SDS011;71272;52.166;4.498;2023-07-30T13:52:04;13.45;;;2.78;;
81834;SDS011;71272;52.166;4.498;2023-07-30T13:54:30;8.90;;;2.33;;
81834;SDS011;71272;52.166;4.498;2023-07-30T13:56:55;17.80;;;2.83;;
81834;SDS011;71272;52.166;4.498;2023-07-30T13:59:20;12.87;;;1.90;;
81834;SDS011;71272;52.166;4.498;2023-07-30T14:01:46;16.00;;;2.53;;
81834;SDS011;71272;52.166;4.498;2023-07-30T14:04:11;9.07;;;2.42;;
81834;SDS011;71272;52.166;4.498;2023-07-30T14:06:36;13.23;;;2.55;;
81834;SDS011;71272;52.166;4.498;2023-07-30T14:09:02;16.27;;;3.03;;
81834;SDS011;71272;52.166;4.498;2023-07-30T14:11:29;14.13;;;2.67;;
81834;SDS011;71272;52.166;4.498;2023-07-30T14:13:54;19.90;;;3.43;;
81834;SDS011;71272;52.166;4.498;2023-07-30T14:16:20;13.45;;;2.17;;
81834;SDS011;71272;52.166;4.498;2023-07-30T14:18:46;20.63;;;3.53;;
81834;SDS011;71272;52.166;4.498;2023-07-30T14:21:12;17.83;;;3.13;;
81834;SDS011;71272;52.166;4.498;2023-07-30T14:23:38;18.17;;;2.80;;
81834;SDS011;71272;52.166;4.498;2023-07-30T14:26:03;20.85;;;3.63;;
81834;SDS011;71272;52.166;4.498;2023-07-30T14:28:29;18.42;;;3.28;;
81834;SDS011;71272;52.166;4.498;2023-07-30T14:30:56;17.83;;;3.13;;
81834;SDS011;71272;52.166;4.498;2023-07-30T14:33:21;19.52;;;3.65;;
81834;SDS011;71272;52.166;4.498;2023-07-30T14:35:47;15.37;;;3.40;;
81834;SDS011;71272;52.166;4.498;2023-07-30T14:38:12;19.63;;;3.60;;
81834;SDS011;71272;52.166;4.498;2023-07-30T14:40:38;17.63;;;3.25;;
81834;SDS011;71272;52.166;4.498;2023-07-30T14:43:03;17.45;;;4.03;;
81834;SDS011;71272;52.166;4.498;2023-07-30T14:45:28;18.43;;;3.17;;
81834;SDS011;71272;52.166;4.498;2023-07-30T14:47:54;17.63;;;3.47;;
81834;SDS011;71272;52.166;4.498;2023-07-30T14:50:19;15.97;;;3.33;;
81834;SDS011;71272;52.166;4.498;2023-07-30T14:52:46;15.43;;;3.20;;
81834;SDS011;71272;52.166;4.498;2023-07-30T14:55:11;26.10;;;3.92;;